BIIS

Ísafjörður Airport

Ísafjörður, Iceland

BIIS 190900Z 04006KT 9999 FEW020 BKN060 07/01 Q1017

Observed Flight Rules
Aug-19 @ 09:00 UTC (18 minutes ago)
 
Visual Flight Rules
Wind Visibility Clouds
40° at 6 knots 10,000+ meters
  • Few at 2,000' AGL
  • Broken at 6,000' AGL
Temperatures Readings
Current 7°C / 45°F
Dewpoint 1°C / 34°F
Humidity 66%
Altimeter 30.03" Hg
Pressure 1017 hPa
Elevation 3
Observed Flight Rules
Aug-19 @ 09:00 UTC
(18 minutes ago)
 
VFR
Wind Visibility
40° at 6 knots 10,000+ meters
Clouds
  • Few at 2,000' AGL
  • Broken at 6,000' AGL
Temperature Dewpoint
7°C / 45°F 1°C / 34°F
Humidity Altimeter Pressure
66% 30.03" Hg 1017 hPa